createdAt,value
2023-03-19T00:01:53.473Z,67.71
2023-03-19T00:04:24.225Z,67.69
2023-03-19T00:06:51.965Z,68.70
2023-03-19T00:09:20.641Z,67.65
2023-03-19T00:11:48.742Z,67.63
2023-03-19T00:14:17.605Z,66.53
2023-03-19T00:16:45.380Z,67.30
2023-03-19T00:19:12.938Z,68.82
2023-03-19T00:21:41.749Z,66.76
2023-03-19T00:24:09.960Z,67.60
2023-03-19T00:26:38.504Z,67.39
2023-03-19T00:29:06.573Z,65.53
2023-03-19T00:31:34.754Z,66.04
2023-03-19T00:34:03.218Z,65.57
2023-03-19T00:36:31.128Z,64.83
2023-03-19T00:38:59.961Z,64.70
2023-03-19T00:41:27.511Z,64.73
2023-03-19T00:43:56.314Z,65.21
2023-03-19T00:46:23.971Z,65.46
2023-03-19T00:48:55.613Z,65.18
2023-03-19T00:51:24.585Z,64.94
2023-03-19T00:53:52.495Z,65.12
2023-03-19T00:56:21.755Z,64.74
2023-03-19T00:58:49.194Z,66.24
2023-03-19T01:01:18.884Z,64.98
2023-03-19T01:03:47.156Z,64.40
2023-03-19T01:06:14.750Z,65.23
2023-03-19T01:08:42.473Z,65.05
2023-03-19T01:11:12.337Z,66.01
2023-03-19T01:13:42.088Z,67.03
2023-03-19T01:16:10.107Z,66.12
2023-03-19T01:18:37.929Z,67.45
2023-03-19T01:21:06.273Z,65.82
2023-03-19T01:23:33.800Z,64.84
2023-03-19T01:26:01.736Z,64.79
2023-03-19T01:28:29.244Z,65.62
2023-03-19T01:31:01.856Z,64.36
2023-03-19T01:33:29.441Z,64.48
2023-03-19T01:35:58.022Z,63.61
2023-03-19T01:38:25.508Z,63.55
2023-03-19T01:40:53.248Z,64.78
2023-03-19T01:43:22.656Z,63.96
2023-03-19T01:45:52.490Z,63.22
2023-03-19T01:48:28.561Z,64.25
2023-03-19T01:50:57.588Z,63.54
2023-03-19T01:53:28.820Z,63.74
2023-03-19T01:56:00.558Z,64.02
2023-03-19T01:58:28.770Z,63.80
2023-03-19T02:00:57.157Z,64.18
2023-03-19T02:03:27.596Z,64.03
2023-03-19T02:05:57.426Z,63.51
2023-03-19T02:08:25.889Z,62.75
2023-03-19T02:10:56.098Z,63.08
2023-03-19T02:13:24.324Z,62.97
2023-03-19T02:15:51.969Z,63.29
2023-03-19T02:18:19.924Z,62.70
2023-03-19T02:20:55.799Z,62.70
2023-03-19T02:23:33.511Z,63.25
2023-03-19T02:26:07.618Z,61.68
2023-03-19T02:28:37.649Z,62.78
2023-03-19T02:31:05.762Z,62.97
2023-03-19T02:33:33.961Z,62.74
2023-03-19T02:36:03.779Z,62.02
2023-03-19T02:38:34.633Z,62.20
2023-03-19T02:41:04.557Z,63.02
2023-03-19T02:43:35.646Z,63.59
2023-03-19T02:46:04.295Z,62.36
2023-03-19T02:48:32.431Z,62.88
2023-03-19T02:51:00.037Z,61.94
2023-03-19T02:53:27.622Z,62.62
2023-03-19T02:55:55.045Z,62.47
2023-03-19T02:58:22.660Z,62.51
2023-03-19T03:00:52.058Z,63.21
2023-03-19T03:03:19.797Z,61.23
2023-03-19T03:05:47.305Z,60.93
2023-03-19T03:08:14.709Z,61.92
2023-03-19T03:10:42.174Z,60.68
2023-03-19T03:13:09.600Z,61.76
2023-03-19T03:15:37.462Z,61.07
2023-03-19T03:18:06.719Z,61.25
2023-03-19T03:20:34.577Z,61.36
2023-03-19T03:23:02.596Z,62.26
2023-03-19T03:25:30.643Z,61.70
2023-03-19T03:27:58.163Z,62.31
2023-03-19T03:30:25.735Z,61.84
2023-03-19T03:32:53.208Z,60.56
2023-03-19T03:35:22.797Z,61.89
2023-03-19T03:37:50.416Z,61.14
2023-03-19T03:40:18.348Z,61.80
2023-03-19T03:42:45.787Z,62.49
2023-03-19T03:45:14.334Z,65.07
2023-03-19T03:47:42.203Z,64.27
2023-03-19T03:50:11.719Z,62.49
2023-03-19T03:52:42.069Z,62.71
2023-03-19T03:55:10.604Z,64.44
2023-03-19T03:57:38.231Z,64.51
2023-03-19T04:00:06.867Z,63.94
2023-03-19T04:02:34.313Z,63.24
2023-03-19T04:05:01.804Z,64.33
2023-03-19T04:07:29.227Z,62.85
2023-03-19T04:09:59.323Z,63.36
2023-03-19T04:12:27.156Z,62.16
2023-03-19T04:14:54.590Z,62.11
2023-03-19T04:17:22.282Z,63.48
2023-03-19T04:19:49.717Z,63.53
2023-03-19T04:22:17.139Z,62.89
2023-03-19T04:24:44.779Z,62.97
2023-03-19T04:27:13.671Z,63.33
2023-03-19T04:29:41.265Z,63.88
2023-03-19T04:32:09.021Z,63.75
2023-03-19T04:34:37.353Z,65.58
2023-03-19T04:37:05.132Z,66.20
2023-03-19T04:39:33.485Z,64.96
2023-03-19T04:42:01.019Z,64.83
2023-03-19T04:44:30.975Z,63.52
2023-03-19T04:46:58.536Z,64.04
2023-03-19T04:49:25.966Z,64.68
2023-03-19T04:51:53.493Z,63.37
2023-03-19T04:54:20.968Z,64.80
2023-03-19T04:56:48.405Z,64.81
2023-03-19T04:59:15.831Z,63.56
2023-03-19T05:01:44.636Z,65.61
2023-03-19T05:04:12.293Z,65.44
2023-03-19T05:06:39.824Z,65.79
2023-03-19T05:09:07.825Z,66.66
2023-03-19T05:11:35.376Z,67.13
2023-03-19T05:14:02.855Z,66.77
2023-03-19T05:16:30.719Z,69.38
2023-03-19T05:18:59.456Z,69.72
2023-03-19T05:21:26.874Z,74.81
2023-03-19T05:23:54.859Z,75.34
2023-03-19T05:26:22.544Z,74.21
2023-03-19T05:28:50.171Z,74.70
2023-03-19T05:31:17.743Z,75.44
2023-03-19T05:33:45.269Z,76.22
2023-03-19T05:36:14.053Z,77.61
2023-03-19T05:38:41.680Z,80.68
2023-03-19T05:41:09.326Z,80.39
2023-03-19T05:43:37.164Z,84.22
2023-03-19T05:46:05.002Z,86.67
2023-03-19T05:48:33.501Z,87.83
2023-03-19T05:51:01.317Z,90.41
2023-03-19T05:53:30.390Z,89.88
2023-03-19T05:55:57.970Z,90.66
2023-03-19T05:58:25.917Z,89.85
2023-03-19T06:00:56.177Z,90.80
2023-03-19T06:03:23.842Z,91.23
2023-03-19T06:05:51.779Z,89.85
2023-03-19T06:08:19.691Z,90.28
2023-03-19T06:10:48.440Z,88.72
2023-03-19T06:13:15.889Z,88.77
2023-03-19T06:15:43.316Z,88.84
2023-03-19T06:18:11.148Z,86.50
2023-03-19T06:20:38.539Z,83.91
2023-03-19T06:23:05.978Z,83.83
2023-03-19T06:25:33.396Z,82.69
2023-03-19T06:28:02.139Z,81.45
2023-03-19T06:30:29.613Z,81.97
2023-03-19T06:32:57.161Z,78.99
2023-03-19T06:35:24.650Z,78.27
2023-03-19T06:37:52.617Z,77.90
2023-03-19T06:40:20.301Z,79.20
2023-03-19T06:42:48.134Z,78.05
2023-03-19T06:45:18.946Z,77.76
2023-03-19T06:47:46.926Z,77.45
2023-03-19T06:50:16.406Z,77.86
2023-03-19T06:52:44.562Z,78.57
2023-03-19T06:55:12.643Z,78.23
2023-03-19T06:57:40.336Z,79.05
2023-03-19T07:00:11.490Z,79.36
2023-03-19T07:02:40.313Z,80.26
2023-03-19T07:05:08.274Z,80.16
2023-03-19T07:07:35.785Z,83.97
2023-03-19T07:10:03.866Z,84.96
2023-03-19T07:12:31.502Z,84.56
2023-03-19T07:14:59.016Z,84.56
2023-03-19T07:17:26.786Z,82.13
2023-03-19T07:19:55.789Z,81.67
2023-03-19T07:22:23.466Z,82.89
2023-03-19T07:24:51.565Z,85.85
2023-03-19T07:27:25.247Z,84.51
2023-03-19T07:29:52.649Z,89.06
2023-03-19T07:32:20.603Z,95.63
2023-03-19T07:34:48.146Z,97.95
2023-03-19T07:37:16.960Z,99.20
2023-03-19T07:39:44.397Z,97.77
2023-03-19T07:42:12.006Z,95.69
2023-03-19T07:44:39.748Z,96.06
2023-03-19T07:47:16.041Z,96.92
2023-03-19T07:50:01.691Z,93.02
2023-03-19T07:52:30.454Z,88.63
2023-03-19T07:54:57.877Z,87.60
2023-03-19T07:57:25.806Z,85.99
2023-03-19T07:59:53.224Z,87.77
2023-03-19T08:02:22.954Z,87.61
2023-03-19T08:04:51.182Z,87.56
2023-03-19T08:07:18.618Z,86.90
2023-03-19T08:09:47.391Z,85.82
2023-03-19T08:12:15.305Z,87.61
2023-03-19T08:14:42.955Z,87.48
2023-03-19T08:17:10.638Z,85.94
2023-03-19T08:19:38.101Z,86.20
2023-03-19T08:22:05.936Z,85.50
2023-03-19T08:24:33.368Z,85.25
2023-03-19T08:27:02.183Z,85.51
2023-03-19T08:29:29.615Z,84.96
2023-03-19T08:31:58.595Z,84.57
2023-03-19T08:34:26.995Z,85.02
2023-03-19T08:36:54.441Z,84.99
2023-03-19T08:39:21.910Z,85.47
2023-03-19T08:41:49.345Z,87.07
2023-03-19T08:44:18.072Z,87.51
2023-03-19T08:46:45.634Z,86.92
2023-03-19T08:49:13.129Z,87.67
2023-03-19T08:51:40.590Z,86.87
2023-03-19T08:54:09.125Z,85.55
2023-03-19T08:56:36.520Z,87.27
2023-03-19T08:59:04.063Z,88.11
2023-03-19T09:01:33.025Z,87.40
2023-03-19T09:04:00.474Z,88.49
2023-03-19T09:06:27.877Z,87.64
2023-03-19T09:08:59.692Z,89.40
2023-03-19T09:11:27.361Z,87.64
2023-03-19T09:13:54.838Z,87.58
2023-03-19T09:16:22.286Z,87.71
2023-03-19T09:18:51.278Z,88.28
2023-03-19T09:21:19.284Z,89.65
2023-03-19T09:23:46.714Z,91.25
2023-03-19T09:26:14.148Z,89.30
2023-03-19T09:28:41.685Z,92.84
2023-03-19T09:31:11.517Z,92.92
2023-03-19T09:33:39.173Z,91.04
2023-03-19T09:36:09.194Z,91.42
2023-03-19T09:38:36.714Z,91.71
2023-03-19T09:41:10.793Z,92.68
2023-03-19T09:43:58.262Z,92.74
2023-03-19T09:46:33.834Z,93.59
2023-03-19T09:49:07.179Z,92.24
2023-03-19T09:51:44.234Z,91.79
2023-03-19T09:54:24.054Z,95.58
2023-03-19T09:56:51.461Z,93.28
2023-03-19T09:59:19.476Z,91.42
2023-03-19T10:01:53.988Z,90.04
2023-03-19T10:04:39.617Z,86.18
2023-03-19T10:07:18.188Z,88.34
2023-03-19T10:09:59.590Z,84.90
2023-03-19T10:12:42.076Z,88.17
2023-03-19T10:15:19.827Z,85.53
2023-03-19T10:17:58.046Z,86.29
2023-03-19T10:20:32.860Z,88.55
2023-03-19T10:23:13.620Z,85.33
2023-03-19T10:25:44.811Z,79.95
2023-03-19T10:28:15.958Z,81.61
2023-03-19T10:30:47.745Z,79.82
2023-03-19T10:33:23.942Z,81.02
2023-03-19T10:35:58.814Z,81.87
2023-03-19T10:38:28.559Z,81.30
2023-03-19T10:41:12.317Z,81.81
2023-03-19T10:43:40.996Z,80.46
2023-03-19T10:46:13.701Z,80.15
2023-03-19T10:48:45.397Z,78.71
2023-03-19T10:51:16.356Z,83.91
2023-03-19T10:53:45.266Z,82.71
2023-03-19T10:56:20.189Z,80.26
2023-03-19T10:59:02.443Z,79.51
2023-03-19T11:01:34.084Z,78.52
2023-03-19T11:04:02.805Z,79.24
2023-03-19T11:06:34.381Z,79.44
2023-03-19T11:09:16.628Z,78.30
2023-03-19T11:11:45.558Z,79.14
2023-03-19T11:14:17.844Z,79.57
2023-03-19T11:16:56.589Z,79.38
2023-03-19T11:19:26.240Z,78.35
2023-03-19T11:22:03.819Z,79.90
2023-03-19T11:24:37.218Z,79.14
2023-03-19T11:27:06.565Z,79.42
2023-03-19T11:29:43.224Z,81.26
2023-03-19T11:32:27.561Z,79.39
2023-03-19T11:34:59.959Z,77.68
2023-03-19T11:37:34.811Z,78.11
2023-03-19T11:40:11.205Z,77.91
2023-03-19T11:43:06.755Z,77.54
2023-03-19T11:45:42.075Z,78.08
2023-03-19T11:48:27.247Z,77.74
2023-03-19T11:50:59.674Z,77.26
2023-03-19T11:53:32.054Z,76.65
2023-03-19T11:56:15.263Z,76.13
2023-03-19T11:58:57.748Z,76.39
2023-03-19T12:01:43.515Z,76.73
2023-03-19T12:04:29.774Z,76.36
2023-03-19T12:07:04.507Z,75.51
2023-03-19T12:09:39.204Z,76.02
2023-03-19T12:12:17.523Z,76.30
2023-03-19T12:14:55.586Z,75.29
2023-03-19T12:17:38.606Z,74.56
2023-03-19T12:20:21.462Z,74.84
2023-03-19T12:23:06.790Z,74.71
2023-03-19T12:25:46.511Z,73.98
2023-03-19T12:28:23.883Z,74.22
2023-03-19T12:31:08.852Z,73.12
2023-03-19T12:33:45.787Z,72.19
2023-03-19T12:36:18.236Z,72.34
2023-03-19T12:38:51.027Z,71.69
2023-03-19T12:41:22.279Z,72.12
2023-03-19T12:43:58.118Z,71.19
2023-03-19T12:46:32.197Z,71.76
2023-03-19T12:49:04.390Z,71.19
2023-03-19T12:51:36.463Z,71.37
2023-03-19T12:54:09.260Z,71.38
2023-03-19T12:56:44.899Z,71.15
2023-03-19T12:59:31.727Z,71.82
2023-03-19T13:02:02.781Z,71.53
2023-03-19T13:04:34.115Z,71.64
2023-03-19T13:07:05.411Z,71.45
2023-03-19T13:09:37.809Z,71.55
2023-03-19T13:12:10.482Z,71.71
2023-03-19T13:14:50.084Z,72.78
2023-03-19T13:17:25.374Z,72.05
2023-03-19T13:19:54.376Z,71.56
2023-03-19T13:22:24.037Z,71.04
2023-03-19T13:24:53.847Z,71.55
2023-03-19T13:27:24.749Z,71.18
2023-03-19T13:30:03.939Z,70.44
2023-03-19T13:32:39.599Z,71.72
2023-03-19T13:35:32.434Z,71.27
2023-03-19T13:38:03.022Z,71.17
2023-03-19T13:40:40.674Z,71.12
2023-03-19T13:43:41.667Z,72.18
2023-03-19T13:46:36.291Z,71.39
2023-03-19T13:49:11.364Z,70.95
2023-03-19T13:51:39.279Z,70.97
2023-03-19T13:54:16.310Z,71.15
2023-03-19T13:57:05.591Z,70.22
2023-03-19T13:59:34.224Z,70.25
2023-03-19T14:02:03.941Z,70.84
2023-03-19T14:04:32.875Z,70.31
2023-03-19T14:07:11.578Z,70.53
2023-03-19T14:09:43.093Z,70.45
2023-03-19T14:12:26.314Z,69.97
2023-03-19T14:14:57.672Z,70.27
2023-03-19T14:17:32.038Z,68.65
2023-03-19T14:20:09.227Z,69.85
2023-03-19T14:22:39.836Z,70.44
2023-03-19T14:25:19.758Z,69.03
2023-03-19T14:27:49.622Z,68.95
2023-03-19T14:30:27.599Z,70.60
2023-03-19T14:33:01.145Z,67.54
2023-03-19T14:35:29.803Z,68.03
2023-03-19T14:37:57.715Z,68.24
2023-03-19T14:40:28.062Z,67.59
2023-03-19T14:43:04.121Z,67.07
2023-03-19T14:45:49.182Z,67.41
2023-03-19T14:48:57.723Z,65.98
2023-03-19T14:51:46.094Z,66.38
2023-03-19T14:54:24.641Z,66.47
2023-03-19T14:56:52.192Z,68.36
2023-03-19T14:59:19.786Z,65.34
2023-03-19T15:01:52.168Z,65.83
2023-03-19T15:04:22.743Z,66.16
2023-03-19T15:06:55.840Z,65.44
2023-03-19T15:09:29.778Z,63.91
2023-03-19T15:12:26.047Z,66.71
2023-03-19T15:15:20.071Z,66.35
2023-03-19T15:18:03.007Z,66.45
2023-03-19T15:20:38.274Z,66.98
2023-03-19T15:23:19.987Z,67.84
2023-03-19T15:25:56.887Z,65.94
2023-03-19T15:28:26.432Z,64.57
2023-03-19T15:31:05.926Z,65.42
2023-03-19T15:33:44.080Z,66.56
2023-03-19T15:36:19.949Z,64.71
2023-03-19T15:38:51.313Z,64.19
2023-03-19T15:41:19.860Z,64.75
2023-03-19T15:43:47.832Z,64.09
2023-03-19T15:46:21.568Z,65.54
2023-03-19T15:48:53.223Z,63.28
2023-03-19T15:51:25.243Z,61.99
2023-03-19T15:53:53.807Z,60.73
2023-03-19T15:56:22.040Z,62.01
2023-03-19T15:58:53.442Z,61.39
2023-03-19T16:01:21.387Z,61.53
2023-03-19T16:03:53.018Z,62.20
2023-03-19T16:06:26.946Z,61.96
2023-03-19T16:08:56.830Z,62.60
2023-03-19T16:11:29.988Z,62.47
2023-03-19T16:13:59.093Z,62.44
2023-03-19T16:16:29.895Z,63.01
2023-03-19T16:18:58.876Z,62.05
2023-03-19T16:21:36.070Z,63.17
2023-03-19T16:24:07.517Z,63.61
2023-03-19T16:26:39.040Z,64.10
2023-03-19T16:29:16.574Z,64.24
2023-03-19T16:31:46.870Z,65.48
2023-03-19T16:34:26.184Z,63.84
2023-03-19T16:36:55.428Z,64.25
2023-03-19T16:39:32.833Z,63.87
2023-03-19T16:42:17.039Z,62.98
2023-03-19T16:44:48.286Z,62.39
2023-03-19T16:47:16.732Z,62.28
2023-03-19T16:49:44.181Z,62.84
2023-03-19T16:52:16.220Z,62.68
2023-03-19T16:54:44.186Z,62.10
2023-03-19T16:57:14.406Z,62.54
2023-03-19T16:59:41.866Z,64.01
2023-03-19T17:02:12.497Z,64.64
2023-03-19T17:04:40.078Z,64.89
2023-03-19T17:07:08.200Z,64.50
2023-03-19T17:09:37.656Z,63.76
2023-03-19T17:12:08.157Z,65.46
2023-03-19T17:14:36.125Z,68.17
2023-03-19T17:17:04.118Z,67.32
2023-03-19T17:19:36.297Z,67.64
2023-03-19T17:22:03.866Z,66.57
2023-03-19T17:24:33.332Z,66.31
2023-03-19T17:27:04.277Z,64.54
2023-03-19T17:29:33.254Z,64.77
2023-03-19T17:32:02.503Z,64.62
2023-03-19T17:34:31.890Z,64.60
2023-03-19T17:37:01.580Z,65.29
2023-03-19T17:39:31.424Z,64.39
2023-03-19T17:41:59.258Z,64.89
2023-03-19T17:44:28.089Z,65.63
2023-03-19T17:46:56.959Z,65.68
2023-03-19T17:49:26.293Z,66.87
2023-03-19T17:51:53.761Z,65.40
2023-03-19T17:54:21.325Z,66.56
2023-03-19T17:56:49.486Z,66.37
2023-03-19T17:59:16.911Z,67.30
2023-03-19T18:01:47.196Z,68.68
2023-03-19T18:04:17.009Z,68.52
2023-03-19T18:06:47.219Z,66.90
2023-03-19T18:09:20.187Z,66.93
2023-03-19T18:11:47.581Z,65.63
2023-03-19T18:14:15.058Z,66.64
2023-03-19T18:16:43.150Z,65.52
2023-03-19T18:19:20.995Z,67.04
2023-03-19T18:21:48.412Z,66.43
2023-03-19T18:24:16.171Z,66.90
2023-03-19T18:26:43.585Z,66.97
2023-03-19T18:29:11.008Z,66.31
2023-03-19T18:31:38.470Z,65.99
2023-03-19T18:34:09.628Z,66.72
2023-03-19T18:36:39.595Z,67.18
2023-03-19T18:39:08.109Z,66.71
2023-03-19T18:41:35.544Z,66.28
2023-03-19T18:44:03.594Z,66.11
2023-03-19T18:46:32.965Z,66.08
2023-03-19T18:49:02.517Z,65.70
2023-03-19T18:51:30.056Z,66.58
2023-03-19T18:53:59.067Z,67.21
2023-03-19T18:56:29.129Z,68.16
2023-03-19T18:58:58.554Z,69.52
2023-03-19T19:01:27.383Z,68.83
2023-03-19T19:03:55.942Z,71.08
2023-03-19T19:06:39.992Z,72.00
2023-03-19T19:09:14.291Z,72.10
2023-03-19T19:11:45.293Z,69.92
2023-03-19T19:14:20.275Z,72.27
2023-03-19T19:16:47.866Z,71.14
2023-03-19T19:19:17.679Z,72.13
2023-03-19T19:21:45.083Z,70.61
2023-03-19T19:24:14.925Z,71.20
2023-03-19T19:26:44.140Z,72.10
2023-03-19T19:29:14.614Z,73.88
2023-03-19T19:31:42.437Z,73.84
2023-03-19T19:34:13.522Z,72.54
2023-03-19T19:36:40.989Z,72.98
2023-03-19T19:39:08.509Z,72.89
2023-03-19T19:41:38.063Z,73.71
2023-03-19T19:44:06.620Z,71.08
2023-03-19T19:46:34.107Z,70.54
2023-03-19T19:49:01.959Z,70.70
2023-03-19T19:51:29.439Z,72.20
2023-03-19T19:53:57.459Z,70.14
2023-03-19T19:56:26.633Z,72.99
2023-03-19T19:58:57.405Z,71.49
2023-03-19T20:01:27.336Z,71.04
2023-03-19T20:03:54.923Z,70.22
2023-03-19T20:06:22.414Z,71.23
2023-03-19T20:08:50.158Z,72.86
2023-03-19T20:11:19.954Z,70.89
2023-03-19T20:13:52.503Z,70.78
2023-03-19T20:16:23.083Z,71.35
2023-03-19T20:18:53.530Z,72.52
2023-03-19T20:21:22.511Z,72.09
2023-03-19T20:23:52.871Z,73.57
2023-03-19T20:26:22.794Z,72.87
2023-03-19T20:28:51.080Z,73.27
2023-03-19T20:31:27.244Z,74.41
2023-03-19T20:33:54.784Z,73.49
2023-03-19T20:36:22.477Z,72.47
2023-03-19T20:38:50.831Z,72.86
2023-03-19T20:41:21.195Z,75.43
2023-03-19T20:43:50.424Z,73.19
2023-03-19T20:46:20.290Z,71.29
2023-03-19T20:48:49.847Z,73.31
2023-03-19T20:51:21.474Z,72.74
2023-03-19T20:53:51.262Z,72.63
2023-03-19T20:56:24.394Z,72.57
2023-03-19T20:58:52.034Z,74.22
2023-03-19T21:01:19.711Z,72.96
2023-03-19T21:03:47.173Z,72.40
2023-03-19T21:06:18.853Z,73.08
2023-03-19T21:08:48.609Z,72.51
2023-03-19T21:11:18.865Z,72.56
2023-03-19T21:13:47.907Z,72.88
2023-03-19T21:16:18.460Z,72.77
2023-03-19T21:18:49.526Z,72.84
2023-03-19T21:21:20.078Z,74.29
2023-03-19T21:23:54.538Z,73.81
2023-03-19T21:26:22.945Z,72.70
2023-03-19T21:28:53.160Z,73.91
2023-03-19T21:31:21.699Z,73.27
2023-03-19T21:33:50.468Z,74.20
2023-03-19T21:36:20.161Z,73.93
2023-03-19T21:38:49.068Z,72.83
2023-03-19T21:41:23.688Z,72.46
2023-03-19T21:43:56.105Z,74.09
2023-03-19T21:46:26.151Z,72.81
2023-03-19T21:48:54.356Z,73.90
2023-03-19T21:51:25.052Z,74.95
2023-03-19T21:53:52.711Z,73.14
2023-03-19T21:56:23.012Z,72.83
2023-03-19T21:58:52.018Z,72.29
2023-03-19T22:01:21.774Z,71.72
2023-03-19T22:03:49.273Z,71.76
2023-03-19T22:06:16.994Z,72.31
2023-03-19T22:08:48.172Z,72.89
2023-03-19T22:11:18.458Z,73.09
2023-03-19T22:13:46.200Z,72.32
2023-03-19T22:16:19.690Z,72.51
2023-03-19T22:18:47.599Z,73.50
2023-03-19T22:21:16.389Z,73.24
2023-03-19T22:23:43.823Z,73.46
2023-03-19T22:26:28.554Z,74.13
2023-03-19T22:28:56.643Z,75.36
2023-03-19T22:31:24.476Z,73.42
2023-03-19T22:33:52.186Z,72.17
2023-03-19T22:36:19.700Z,72.89
2023-03-19T22:38:48.712Z,72.84
2023-03-19T22:41:19.258Z,73.11
2023-03-19T22:43:48.494Z,73.94
2023-03-19T22:46:18.482Z,74.32
2023-03-19T22:48:49.995Z,73.08
2023-03-19T22:51:21.188Z,73.40
2023-03-19T22:53:49.204Z,73.29
2023-03-19T22:56:17.712Z,73.31
2023-03-19T22:58:46.757Z,72.85
2023-03-19T23:01:31.826Z,73.36
2023-03-19T23:04:15.045Z,73.50
2023-03-19T23:06:42.623Z,72.74
2023-03-19T23:09:13.798Z,73.34
2023-03-19T23:11:41.204Z,72.71
2023-03-19T23:14:18.602Z,72.34
2023-03-19T23:19:29.082Z,72.88
2023-03-19T23:21:57.827Z,72.81
2023-03-19T23:24:25.940Z,73.52
2023-03-19T23:26:55.386Z,73.18
2023-03-19T23:29:26.831Z,73.30
2023-03-19T23:31:54.448Z,74.25
2023-03-19T23:34:23.154Z,76.44
2023-03-19T23:36:51.108Z,74.80
2023-03-19T23:39:18.765Z,74.35
2023-03-19T23:41:49.327Z,74.74
2023-03-19T23:44:19.403Z,74.56
2023-03-19T23:46:49.363Z,75.20
2023-03-19T23:49:24.695Z,75.86
2023-03-19T23:51:53.686Z,74.90
2023-03-19T23:54:30.134Z,74.68
2023-03-19T23:56:59.662Z,73.99
2023-03-19T23:59:30.356Z,76.55
